createdAt,value
2023-03-25T00:02:05.334Z,47.10
2023-03-25T00:04:35.321Z,46.80
2023-03-25T00:07:04.511Z,46.80
2023-03-25T00:09:34.923Z,46.80
2023-03-25T00:12:04.149Z,46.60
2023-03-25T00:14:34.020Z,46.60
2023-03-25T00:17:03.090Z,46.70
2023-03-25T00:19:32.103Z,46.70
2023-03-25T00:22:01.609Z,46.60
2023-03-25T00:24:30.764Z,46.50
2023-03-25T00:27:01.262Z,46.50
2023-03-25T00:29:30.244Z,46.60
2023-03-25T00:31:59.291Z,46.20
2023-03-25T00:34:28.208Z,46.50
2023-03-25T00:36:57.655Z,46.50
2023-03-25T00:39:26.447Z,46.40
2023-03-25T00:41:57.254Z,46.50
2023-03-25T00:44:27.391Z,46.50
2023-03-25T00:46:56.516Z,46.40
2023-03-25T00:49:25.523Z,46.40
2023-03-25T00:51:54.568Z,46.30
2023-03-25T00:54:23.473Z,46.50
2023-03-25T00:56:54.285Z,46.50
2023-03-25T00:59:23.375Z,46.30
2023-03-25T01:01:56.293Z,46.40
2023-03-25T01:04:25.274Z,46.30
2023-03-25T01:06:55.160Z,46.30
2023-03-25T01:09:24.128Z,46.40
2023-03-25T01:11:53.160Z,46.20
2023-03-25T01:14:27.367Z,46.20
2023-03-25T01:17:00.457Z,46.10
2023-03-25T01:19:32.157Z,46.20
2023-03-25T01:22:01.281Z,46.20
2023-03-25T01:24:30.319Z,46.10
2023-03-25T01:26:59.383Z,46.10
2023-03-25T01:29:30.333Z,46.10
2023-03-25T01:32:01.297Z,46.10
2023-03-25T01:34:30.082Z,45.90
2023-03-25T01:36:59.560Z,46.10
2023-03-25T01:39:28.342Z,46.00
2023-03-25T01:46:29.405Z,46.10
2023-03-25T01:49:04.493Z,45.90
2023-03-25T01:51:39.527Z,45.90
2023-03-25T01:54:08.683Z,45.80
2023-03-25T01:56:42.833Z,45.80
2023-03-25T01:59:12.154Z,45.80
2023-03-25T02:01:41.923Z,45.60
2023-03-25T02:04:13.072Z,45.70
2023-03-25T02:06:46.716Z,45.80
2023-03-25T02:09:21.236Z,45.80
2023-03-25T02:11:50.622Z,45.80
2023-03-25T02:14:25.323Z,45.80
2023-03-25T02:17:10.251Z,45.80
2023-03-25T02:20:37.432Z,45.70
2023-03-25T02:23:43.887Z,45.90
2023-03-25T02:26:50.071Z,45.70
2023-03-25T02:29:40.787Z,45.70
2023-03-25T02:32:35.929Z,45.70
2023-03-25T02:35:41.597Z,45.60
2023-03-25T02:38:30.759Z,46.30
2023-03-25T02:41:08.056Z,45.60
2023-03-25T02:43:46.537Z,45.50
2023-03-25T02:46:19.635Z,45.60
2023-03-25T02:48:57.361Z,45.70
2023-03-25T02:51:32.865Z,45.50
2023-03-25T02:54:09.701Z,45.60
2023-03-25T02:56:44.187Z,45.60
2023-03-25T02:59:15.283Z,45.80
2023-03-25T03:01:45.609Z,45.60
2023-03-25T03:04:14.525Z,45.70
2023-03-25T03:06:45.158Z,45.60
2023-03-25T03:09:38.047Z,45.60
2023-03-25T03:12:29.268Z,45.60
2023-03-25T03:15:21.785Z,45.50
2023-03-25T03:18:15.721Z,45.40
2023-03-25T03:20:56.841Z,45.30
2023-03-25T03:23:33.808Z,45.30
2023-03-25T03:26:12.161Z,45.40
2023-03-25T03:28:48.125Z,45.50
2023-03-25T03:31:48.655Z,45.60
2023-03-25T03:34:24.410Z,45.50
2023-03-25T03:36:58.273Z,45.20
2023-03-25T03:39:33.910Z,45.30
2023-03-25T03:42:16.915Z,45.50
2023-03-25T03:44:54.125Z,45.30
2023-03-25T03:47:29.925Z,45.30
2023-03-25T03:50:06.586Z,45.20
2023-03-25T03:52:45.240Z,45.20
2023-03-25T03:55:22.160Z,45.30
2023-03-25T03:58:00.571Z,45.90
2023-03-25T04:00:39.400Z,45.20
2023-03-25T04:03:16.170Z,45.50
2023-03-25T04:05:56.423Z,45.30
2023-03-25T04:08:33.414Z,45.30
2023-03-25T04:11:09.761Z,45.20
2023-03-25T04:13:45.743Z,45.50
2023-03-25T04:16:15.671Z,45.80
2023-03-25T04:18:48.011Z,45.50
2023-03-25T04:21:17.719Z,45.30
2023-03-25T04:23:46.500Z,45.50
2023-03-25T04:26:15.574Z,45.40
2023-03-25T04:28:46.429Z,45.50
2023-03-25T04:31:17.760Z,45.50
2023-03-25T04:33:48.635Z,45.50
2023-03-25T04:36:17.813Z,45.50
2023-03-25T04:38:46.834Z,45.50
2023-03-25T04:41:16.058Z,45.60
2023-03-25T04:43:46.185Z,45.60
2023-03-25T04:46:17.990Z,45.40
2023-03-25T04:48:47.899Z,45.70
2023-03-25T04:51:17.120Z,45.70
2023-03-25T04:53:45.823Z,45.60
2023-03-25T04:56:19.746Z,45.60
2023-03-25T04:58:49.908Z,45.60
2023-03-25T05:01:31.012Z,45.70
2023-03-25T05:04:05.888Z,45.80
2023-03-25T05:06:38.520Z,45.80
2023-03-25T05:09:11.660Z,45.80
2023-03-25T05:11:41.946Z,45.60
2023-03-25T05:14:14.578Z,45.80
2023-03-25T05:16:44.737Z,45.80
2023-03-25T05:19:14.995Z,45.80
2023-03-25T05:21:44.079Z,45.70
2023-03-25T05:24:14.469Z,45.80
2023-03-25T05:26:44.614Z,45.90
2023-03-25T05:29:16.600Z,46.00
2023-03-25T05:31:48.620Z,45.90
2023-03-25T05:34:17.944Z,45.80
2023-03-25T05:36:47.758Z,45.90
2023-03-25T05:39:17.230Z,46.10
2023-03-25T05:41:46.274Z,46.10
2023-03-25T05:44:19.200Z,46.00
2023-03-25T05:46:48.356Z,46.10
2023-03-25T05:49:17.068Z,46.00
2023-03-25T05:51:46.074Z,46.20
2023-03-25T05:58:46.783Z,46.10
2023-03-25T06:01:32.118Z,46.30
2023-03-25T06:04:03.461Z,46.30
2023-03-25T06:06:35.987Z,46.30
2023-03-25T06:09:05.447Z,46.40
2023-03-25T06:11:38.589Z,46.30
2023-03-25T06:14:09.334Z,46.40
2023-03-25T06:16:39.573Z,46.50
2023-03-25T06:19:09.530Z,46.40
2023-03-25T06:21:39.395Z,46.40
2023-03-25T06:24:09.695Z,46.30
2023-03-25T06:26:38.403Z,46.30
2023-03-25T06:29:08.621Z,46.30
2023-03-25T06:31:38.735Z,46.30
2023-03-25T06:34:08.034Z,46.20
2023-03-25T06:36:36.801Z,46.10
2023-03-25T06:39:06.555Z,47.20
2023-03-25T06:41:37.985Z,46.30
2023-03-25T06:44:16.850Z,46.30
2023-03-25T06:47:13.420Z,46.20
2023-03-25T06:49:46.784Z,46.10
2023-03-25T06:52:15.963Z,46.10
2023-03-25T06:54:45.018Z,46.40
2023-03-25T06:57:13.941Z,46.10
2023-03-25T06:59:42.994Z,45.90
2023-03-25T07:02:15.186Z,45.70
2023-03-25T07:04:44.289Z,45.70
2023-03-25T07:07:13.035Z,45.40
2023-03-25T07:09:42.154Z,45.50
2023-03-25T07:12:11.083Z,45.50
2023-03-25T07:14:40.181Z,45.60
2023-03-25T07:17:08.914Z,45.50
2023-03-25T07:19:39.354Z,45.70
2023-03-25T07:22:08.089Z,45.80
2023-03-25T07:24:37.095Z,45.60
2023-03-25T07:27:05.961Z,45.90
2023-03-25T07:29:37.239Z,45.90
2023-03-25T07:32:06.802Z,45.10
2023-03-25T07:34:36.371Z,44.90
2023-03-25T07:37:08.197Z,45.00
2023-03-25T07:39:37.311Z,45.40
2023-03-25T07:42:07.477Z,45.10
2023-03-25T07:44:59.233Z,45.70
2023-03-25T07:47:28.549Z,45.10
2023-03-25T07:49:57.672Z,45.00
2023-03-25T07:52:27.774Z,45.20
2023-03-25T07:54:56.825Z,44.90
2023-03-25T07:57:25.748Z,44.80
2023-03-25T07:59:54.802Z,44.80
2023-03-25T08:02:23.611Z,44.40
2023-03-25T08:04:54.528Z,44.70
2023-03-25T08:07:23.237Z,44.30
2023-03-25T08:09:53.629Z,44.40
2023-03-25T08:16:56.024Z,44.40
2023-03-25T08:19:24.892Z,43.30
2023-03-25T08:21:53.905Z,43.00
2023-03-25T08:24:24.614Z,43.50
2023-03-25T08:26:55.336Z,42.70
2023-03-25T08:29:24.717Z,42.60
2023-03-25T08:31:53.981Z,41.60
2023-03-25T08:34:28.886Z,41.30
2023-03-25T08:51:06.768Z,41.10
2023-03-25T08:53:35.579Z,40.50
2023-03-25T08:56:04.775Z,40.90
2023-03-25T08:58:33.593Z,40.00
2023-03-25T09:01:02.675Z,40.60
2023-03-25T09:03:32.804Z,40.20
2023-03-25T09:06:07.875Z,40.70
2023-03-25T09:08:38.025Z,39.80
2023-03-25T09:11:08.059Z,39.50
2023-03-25T09:13:36.777Z,40.70
2023-03-25T09:16:06.914Z,40.30
2023-03-25T09:18:36.799Z,39.70
2023-03-25T09:21:08.016Z,38.40
2023-03-25T09:23:37.258Z,38.60
2023-03-25T09:26:07.298Z,38.50
2023-03-25T09:28:36.134Z,37.60
2023-03-25T09:31:05.918Z,37.60
2023-03-25T09:33:34.877Z,37.20
2023-03-25T09:36:04.276Z,38.10
2023-03-25T09:48:10.988Z,38.50
2023-03-25T09:55:21.813Z,38.10
2023-03-25T09:57:57.733Z,38.50
2023-03-25T10:00:27.639Z,38.90
2023-03-25T10:03:14.321Z,38.70
2023-03-25T10:06:13.272Z,38.90
2023-03-25T10:09:03.755Z,38.60
2023-03-25T10:11:45.073Z,39.00
2023-03-25T10:14:22.770Z,38.90
2023-03-25T10:17:10.841Z,39.10
2023-03-25T10:20:01.493Z,39.50
2023-03-25T10:22:41.148Z,39.30
2023-03-25T10:25:19.714Z,38.90
2023-03-25T10:27:53.765Z,38.50
2023-03-25T10:30:27.587Z,38.50
2023-03-25T10:32:59.041Z,37.50
2023-03-25T10:35:32.566Z,35.90
2023-03-25T10:38:14.520Z,36.70
2023-03-25T10:40:50.268Z,36.60
2023-03-25T10:43:28.357Z,36.20
2023-03-25T10:46:04.567Z,35.90
2023-03-25T10:48:34.956Z,35.90
2023-03-25T10:51:10.847Z,37.10
2023-03-25T10:53:43.144Z,35.90
2023-03-25T10:56:17.353Z,34.50
2023-03-25T10:58:51.744Z,34.40
2023-03-25T11:01:28.661Z,34.50
2023-03-25T11:04:01.858Z,34.40
2023-03-25T11:06:37.589Z,34.60
2023-03-25T11:09:25.750Z,34.80
2023-03-25T11:11:55.965Z,35.30
2023-03-25T11:14:27.753Z,35.60
2023-03-25T11:17:03.112Z,36.00
2023-03-25T11:19:42.927Z,36.60
2023-03-25T11:22:20.671Z,36.10
2023-03-25T11:24:54.635Z,36.70
2023-03-25T11:27:28.477Z,36.20
2023-03-25T11:30:05.224Z,37.10
2023-03-25T11:32:36.726Z,36.50
2023-03-25T11:35:17.102Z,35.90
2023-03-25T11:37:54.892Z,35.60
2023-03-25T11:44:59.602Z,35.40
2023-03-25T11:47:34.441Z,35.70
2023-03-25T11:50:03.999Z,36.00
2023-03-25T11:52:42.588Z,35.50
2023-03-25T11:55:22.594Z,36.40
2023-03-25T11:57:56.421Z,36.30
2023-03-25T12:00:37.744Z,36.70
2023-03-25T12:03:20.714Z,37.20
2023-03-25T12:06:05.436Z,36.90
2023-03-25T12:08:45.161Z,36.80
2023-03-25T12:11:21.687Z,37.50
2023-03-25T12:14:34.081Z,36.30
2023-03-25T12:17:19.552Z,36.50
2023-03-25T12:20:01.232Z,37.20
2023-03-25T12:22:54.666Z,37.20
2023-03-25T12:25:37.692Z,36.60
2023-03-25T12:28:33.497Z,37.40
2023-03-25T12:31:18.394Z,37.60
2023-03-25T12:34:04.898Z,37.80
2023-03-25T12:36:49.212Z,37.40
2023-03-25T12:39:43.987Z,38.30
2023-03-25T12:42:33.603Z,37.70
2023-03-25T12:46:45.448Z,37.10
2023-03-25T12:49:37.383Z,38.20
2023-03-25T12:52:19.052Z,37.30
2023-03-25T12:55:04.589Z,37.20
2023-03-25T12:57:58.902Z,37.60
2023-03-25T13:02:06.426Z,36.50
2023-03-25T13:04:56.075Z,36.70
2023-03-25T13:07:33.457Z,37.90
2023-03-25T13:10:14.341Z,39.80
2023-03-25T13:12:50.366Z,40.30
2023-03-25T13:15:27.687Z,41.00
2023-03-25T13:18:04.168Z,40.90
2023-03-25T13:20:42.650Z,40.50
2023-03-25T13:23:21.513Z,40.60
2023-03-25T13:25:57.678Z,40.30
2023-03-25T13:28:39.308Z,40.20
2023-03-25T13:35:48.903Z,40.80
2023-03-25T13:38:28.571Z,40.50
2023-03-25T13:41:13.006Z,40.70
2023-03-25T13:43:55.588Z,41.10
2023-03-25T13:46:33.000Z,40.40
2023-03-25T13:49:13.174Z,41.50
2023-03-25T13:51:43.636Z,40.80
2023-03-25T13:59:15.279Z,41.70
2023-03-25T14:02:13.687Z,40.40
2023-03-25T14:05:21.913Z,41.00
2023-03-25T14:08:23.989Z,41.00
2023-03-25T14:11:03.015Z,40.90
2023-03-25T14:18:06.263Z,41.00
2023-03-25T14:20:41.620Z,40.90
2023-03-25T14:23:20.076Z,40.80
2023-03-25T14:25:54.273Z,40.20
2023-03-25T14:28:37.637Z,39.60
2023-03-25T14:31:29.886Z,40.10
2023-03-25T14:34:25.465Z,40.10
2023-03-25T14:37:27.549Z,39.30
2023-03-25T14:40:02.138Z,39.80
2023-03-25T14:42:43.440Z,39.10
2023-03-25T14:46:14.479Z,38.90
2023-03-25T14:48:46.337Z,38.60
2023-03-25T14:51:41.239Z,38.10
2023-03-25T14:54:29.674Z,36.90
2023-03-25T14:57:08.029Z,35.80
2023-03-25T14:59:42.150Z,35.80
2023-03-25T15:02:18.406Z,36.00
2023-03-25T15:04:54.778Z,36.60
2023-03-25T15:07:44.293Z,37.30
2023-03-25T15:10:26.595Z,38.20
2023-03-25T15:13:06.509Z,39.10
2023-03-25T15:16:00.231Z,40.10
2023-03-25T15:19:07.247Z,40.60
2023-03-25T15:22:11.235Z,42.00
2023-03-25T15:30:09.436Z,43.40
2023-03-25T15:32:57.812Z,43.80
2023-03-25T15:35:51.895Z,44.00
2023-03-25T15:38:51.620Z,44.80
2023-03-25T15:41:55.438Z,45.10
2023-03-25T15:49:29.743Z,45.00
2023-03-25T15:53:42.873Z,45.70
2023-03-25T15:56:17.260Z,46.40
2023-03-25T15:58:56.032Z,47.10
2023-03-25T16:01:30.422Z,46.30
2023-03-25T16:04:06.986Z,46.90
2023-03-25T16:11:26.294Z,46.70
2023-03-25T16:14:12.925Z,46.50
2023-03-25T16:21:16.450Z,46.80
2023-03-25T16:23:45.523Z,46.70
2023-03-25T16:26:16.358Z,46.60
2023-03-25T16:28:46.512Z,46.60
2023-03-25T16:31:34.921Z,46.40
2023-03-25T16:34:08.333Z,46.30
2023-03-25T16:36:38.790Z,46.20
2023-03-25T16:39:14.793Z,46.50
2023-03-25T16:41:49.042Z,46.20
2023-03-25T16:44:23.600Z,45.90
2023-03-25T16:51:29.720Z,46.10
2023-03-25T16:54:00.347Z,46.00
2023-03-25T17:01:04.163Z,45.80
2023-03-25T17:03:51.619Z,45.70
2023-03-25T17:06:27.135Z,45.90
2023-03-25T17:13:40.065Z,45.60
2023-03-25T17:16:10.613Z,45.50
2023-03-25T17:18:40.635Z,45.80
2023-03-25T17:21:13.815Z,45.70
2023-03-25T17:23:47.226Z,45.50
2023-03-25T17:26:21.292Z,45.70
2023-03-25T17:29:03.293Z,46.00
2023-03-25T17:31:36.562Z,46.00
2023-03-25T17:34:09.890Z,45.60
2023-03-25T17:36:41.654Z,45.80
2023-03-25T17:39:20.927Z,45.70
2023-03-25T17:41:58.842Z,45.90
2023-03-25T17:44:36.069Z,45.90
2023-03-25T17:47:05.644Z,46.10
2023-03-25T17:49:35.695Z,46.00
2023-03-25T17:52:04.536Z,46.10
2023-03-25T17:54:33.632Z,46.10
2023-03-25T17:57:02.582Z,46.30
2023-03-25T17:59:33.130Z,46.60
2023-03-25T18:02:02.047Z,46.60
2023-03-25T18:04:31.246Z,46.50
2023-03-25T18:07:00.027Z,46.60
2023-03-25T18:09:29.008Z,46.70
2023-03-25T18:11:59.578Z,46.60
2023-03-25T18:14:29.007Z,46.80
2023-03-25T18:16:59.135Z,46.80
2023-03-25T18:19:31.953Z,46.90
2023-03-25T18:22:09.979Z,46.90
2023-03-25T18:24:48.393Z,46.70
2023-03-25T18:27:17.273Z,46.70
2023-03-25T18:29:46.422Z,46.40
2023-03-25T18:32:16.564Z,46.60
2023-03-25T18:34:46.770Z,46.80
2023-03-25T18:37:15.538Z,46.50
2023-03-25T18:39:44.588Z,46.40
2023-03-25T18:42:13.485Z,46.70
2023-03-25T18:44:42.612Z,46.20
2023-03-25T18:47:12.260Z,45.80
2023-03-25T18:49:42.654Z,45.20
2023-03-25T18:52:11.436Z,45.60
2023-03-25T18:54:41.295Z,45.60
2023-03-25T18:57:10.406Z,45.50
2023-03-25T18:59:39.510Z,45.50
2023-03-25T19:02:08.391Z,45.60
2023-03-25T19:04:39.838Z,45.90
2023-03-25T19:07:13.379Z,45.80
2023-03-25T19:14:14.673Z,45.80
2023-03-25T19:16:54.027Z,45.60
2023-03-25T19:19:27.172Z,45.80
2023-03-25T19:26:29.216Z,45.80
2023-03-25T19:28:57.977Z,46.00
2023-03-25T19:31:29.684Z,45.60
2023-03-25T19:33:58.750Z,45.90
2023-03-25T19:36:27.827Z,45.80
2023-03-25T19:39:05.587Z,45.80
2023-03-25T19:41:42.145Z,45.60
2023-03-25T19:44:11.366Z,45.80
2023-03-25T19:46:40.666Z,45.50
2023-03-25T19:49:09.445Z,46.20
2023-03-25T19:51:38.790Z,45.30
2023-03-25T19:54:09.970Z,45.50
2023-03-25T19:56:41.820Z,45.40
2023-03-25T19:59:11.013Z,45.10
2023-03-25T20:01:41.592Z,45.40
2023-03-25T20:04:10.719Z,45.10
2023-03-25T20:06:39.940Z,45.10
2023-03-25T20:09:10.614Z,45.20
2023-03-25T20:11:41.067Z,44.80
2023-03-25T20:14:09.866Z,44.70
2023-03-25T20:16:39.069Z,44.80
2023-03-25T20:23:39.782Z,44.50
2023-03-25T20:30:42.236Z,44.50
2023-03-25T20:37:43.850Z,44.60
2023-03-25T20:40:16.133Z,44.30
2023-03-25T20:42:48.015Z,44.80
2023-03-25T20:45:19.182Z,44.70
2023-03-25T20:47:49.678Z,44.50
2023-03-25T20:50:18.969Z,44.30
2023-03-25T20:52:48.080Z,44.30
2023-03-25T20:55:17.268Z,44.00
2023-03-25T20:57:46.276Z,44.30
2023-03-25T21:00:18.105Z,44.60
2023-03-25T21:05:18.172Z,44.40
2023-03-25T21:07:48.388Z,43.90
2023-03-25T21:10:18.032Z,44.10
2023-03-25T21:17:22.329Z,44.40
2023-03-25T21:19:53.541Z,44.10
2023-03-25T21:26:56.552Z,44.10
2023-03-25T21:29:25.292Z,43.90
2023-03-25T21:31:54.392Z,44.20
2023-03-25T21:34:23.359Z,44.00
2023-03-25T21:36:52.721Z,44.70
2023-03-25T21:39:21.488Z,44.50
2023-03-25T21:41:50.967Z,44.30
2023-03-25T21:44:21.321Z,44.50
2023-03-25T21:46:53.594Z,44.10
2023-03-25T21:49:22.656Z,43.90
2023-03-25T21:51:56.684Z,44.40
2023-03-25T21:54:26.537Z,44.20
2023-03-25T21:56:55.826Z,44.10
2023-03-25T21:59:26.213Z,44.10
2023-03-25T22:01:56.076Z,43.90
2023-03-25T22:04:24.937Z,44.40
2023-03-25T22:06:56.726Z,44.20
2023-03-25T22:09:25.462Z,44.30
2023-03-25T22:11:54.577Z,44.40
2023-03-25T22:14:23.794Z,44.60
2023-03-25T22:16:54.459Z,44.80
2023-03-25T22:19:24.657Z,44.70
2023-03-25T22:21:54.000Z,45.10
2023-03-25T22:24:22.821Z,45.30
2023-03-25T22:26:51.909Z,45.60
2023-03-25T22:29:20.906Z,45.80
2023-03-25T22:31:50.947Z,45.70
2023-03-25T22:34:21.056Z,45.80
2023-03-25T22:36:51.070Z,45.90
2023-03-25T22:39:23.206Z,46.00
2023-03-25T22:41:52.865Z,46.00
2023-03-25T22:44:22.363Z,45.90
2023-03-25T22:46:52.313Z,45.80
2023-03-25T22:49:22.897Z,45.90
2023-03-25T22:51:52.612Z,45.80
2023-03-25T22:54:21.456Z,45.50
2023-03-25T22:56:50.595Z,45.40
2023-03-25T22:59:19.378Z,45.30
2023-03-25T23:01:48.587Z,45.20
2023-03-25T23:04:17.344Z,45.30
2023-03-25T23:07:00.569Z,45.10
2023-03-25T23:09:43.891Z,45.30
2023-03-25T23:12:15.678Z,45.20
2023-03-25T23:14:50.806Z,44.80
2023-03-25T23:17:20.224Z,45.00
2023-03-25T23:19:49.134Z,45.00
2023-03-25T23:22:21.240Z,45.20
2023-03-25T23:24:50.102Z,44.80
2023-03-25T23:27:19.127Z,45.10
2023-03-25T23:29:48.125Z,45.20
2023-03-25T23:32:17.133Z,44.90
2023-03-25T23:34:46.352Z,45.10
2023-03-25T23:37:15.379Z,45.00
2023-03-25T23:39:46.352Z,45.00
2023-03-25T23:42:15.383Z,45.10
2023-03-25T23:44:44.477Z,44.90
2023-03-25T23:47:13.701Z,44.90
2023-03-25T23:49:44.231Z,44.60
2023-03-25T23:52:13.666Z,44.80
2023-03-25T23:54:44.475Z,44.80
2023-03-25T23:57:14.472Z,44.60
2023-03-25T23:59:44.168Z,44.70
